createdAt,value
2023-03-08T00:11:23.704Z,82.9
2023-03-08T00:26:32.854Z,82.9
2023-03-08T00:41:42.512Z,83
2023-03-08T00:56:51.845Z,83
2023-03-08T01:12:00.707Z,83.1
2023-03-08T01:27:10.154Z,83.1
2023-03-08T01:42:19.681Z,83
2023-03-08T01:57:29.571Z,83
2023-03-08T02:12:39.399Z,82.7
2023-03-08T02:27:49.120Z,83
2023-03-08T02:42:58.386Z,83.1
2023-03-08T02:58:08.251Z,82.7
2023-03-08T03:13:17.257Z,83.1
2023-03-08T03:28:27.054Z,83.1
2023-03-08T03:43:37.527Z,83.2
2023-03-08T03:58:46.283Z,83.3
2023-03-08T04:13:55.640Z,83.2
2023-03-08T04:29:03.952Z,83.2
2023-03-08T04:44:13.612Z,83.2
2023-03-08T04:59:23.541Z,83.2
2023-03-08T05:14:37.608Z,82.6
2023-03-08T05:29:47.963Z,82.8
2023-03-08T05:44:57.699Z,83
2023-03-08T06:00:07.738Z,83.1
2023-03-08T06:15:17.233Z,83
2023-03-08T06:30:27.747Z,83.1
2023-03-08T06:45:37.056Z,82.8
2023-03-08T07:00:46.527Z,82.7
2023-03-08T07:15:56.708Z,82.4
2023-03-08T07:31:06.397Z,82.3
2023-03-08T07:46:16.879Z,82.1
2023-03-08T08:01:26.341Z,82.1
2023-03-08T08:16:38.527Z,81.8
2023-03-08T08:31:49.150Z,81.7
2023-03-08T08:46:58.218Z,81.7
2023-03-08T09:02:08.996Z,82
2023-03-08T09:17:19.247Z,81.4
2023-03-08T09:32:29.394Z,81.2
2023-03-08T09:47:39.772Z,81
2023-03-08T10:02:50.034Z,81
2023-03-08T10:17:59.929Z,80.9
2023-03-08T10:33:09.983Z,80.8
2023-03-08T10:48:19.290Z,80.8
2023-03-08T11:03:29.322Z,80.7
2023-03-08T11:18:39.748Z,80.3
2023-03-08T11:33:49.978Z,79.8
2023-03-08T11:49:00.237Z,80.3
2023-03-08T12:04:10.368Z,79.9
2023-03-08T12:19:20.254Z,80.2
2023-03-08T12:34:30.037Z,80.1
2023-03-08T12:49:40.429Z,80.2
2023-03-08T13:04:50.740Z,80.5
2023-03-08T13:20:01.035Z,80.7
2023-03-08T13:35:11.083Z,81
2023-03-08T13:50:21.289Z,81.3
2023-03-08T14:05:30.571Z,81.5
2023-03-08T14:20:40.145Z,81.5
2023-03-08T14:35:50.577Z,81.7
2023-03-08T14:51:00.558Z,81.6
2023-03-08T15:06:10.507Z,81.6
2023-03-08T15:21:19.856Z,81.6
2023-03-08T15:36:29.958Z,81.6
2023-03-08T15:51:39.641Z,81.7
2023-03-08T16:06:49.570Z,82
2023-03-08T16:21:59.677Z,82.2
2023-03-08T16:37:09.123Z,82.3
2023-03-08T16:52:18.932Z,82.4
2023-03-08T17:07:28.341Z,82.5
2023-03-08T17:22:37.823Z,82.6
2023-03-08T17:37:47.587Z,82.8
2023-03-08T17:52:58.248Z,82.8
2023-03-08T18:08:07.505Z,82.8
2023-03-08T18:23:17.699Z,82.8
2023-03-08T18:38:27.100Z,82.8
2023-03-08T18:53:38.785Z,82.8
2023-03-08T19:08:48.112Z,82.8
2023-03-08T19:23:57.859Z,82.9
2023-03-08T19:39:07.488Z,82.9
2023-03-08T19:54:17.194Z,82.8
2023-03-08T20:09:27.403Z,82.8
2023-03-08T20:24:38.536Z,82.9
2023-03-08T20:39:46.816Z,82.8
2023-03-08T20:54:56.543Z,82.8
2023-03-08T21:10:06.059Z,82.8
2023-03-08T21:25:15.548Z,82.9
2023-03-08T21:40:24.979Z,82.8
2023-03-08T21:55:33.419Z,82.9
2023-03-08T22:10:42.974Z,82.8
2023-03-08T22:25:52.862Z,82.8
2023-03-08T22:41:02.459Z,82.8
2023-03-08T22:56:12.096Z,82.8
2023-03-08T23:11:21.337Z,82.8
2023-03-08T23:26:30.654Z,82.9
2023-03-08T23:41:40.352Z,83
2023-03-08T23:56:49.661Z,83
